sensor_id;sensor_type;location;lat;lon;timestamp;P1;durP1;ratioP1;P2;durP2;ratioP2
19951;SDS011;10137;49.406;19.484;2022-10-14T00:00:09;68.93;;;35.07;;
19951;SDS011;10137;49.406;19.484;2022-10-14T00:02:37;67.87;;;35.20;;
19951;SDS011;10137;49.406;19.484;2022-10-14T00:05:05;58.87;;;32.20;;
19951;SDS011;10137;49.406;19.484;2022-10-14T00:07:35;69.53;;;31.13;;
19951;SDS011;10137;49.406;19.484;2022-10-14T00:10:03;66.23;;;32.60;;
19951;SDS011;10137;49.406;19.484;2022-10-14T00:12:31;92.27;;;32.40;;
19951;SDS011;10137;49.406;19.484;2022-10-14T00:14:59;112.93;;;36.30;;
19951;SDS011;10137;49.406;19.484;2022-10-14T00:17:26;68.63;;;35.60;;
19951;SDS011;10137;49.406;19.484;2022-10-14T00:19:53;73.97;;;36.27;;
19951;SDS011;10137;49.406;19.484;2022-10-14T00:22:20;86.70;;;36.47;;
19951;SDS011;10137;49.406;19.484;2022-10-14T00:24:48;62.97;;;31.57;;
19951;SDS011;10137;49.406;19.484;2022-10-14T00:27:15;80.43;;;28.67;;
19951;SDS011;10137;49.406;19.484;2022-10-14T00:29:42;67.23;;;28.20;;
19951;SDS011;10137;49.406;19.484;2022-10-14T00:32:09;55.40;;;29.23;;
19951;SDS011;10137;49.406;19.484;2022-10-14T00:34:36;52.00;;;28.70;;
19951;SDS011;10137;49.406;19.484;2022-10-14T00:37:03;45.80;;;27.10;;
19951;SDS011;10137;49.406;19.484;2022-10-14T00:39:30;49.53;;;27.27;;
19951;SDS011;10137;49.406;19.484;2022-10-14T00:41:59;47.00;;;27.37;;
19951;SDS011;10137;49.406;19.484;2022-10-14T00:47:26;41.50;;;25.07;;
19951;SDS011;10137;49.406;19.484;2022-10-14T00:49:53;43.13;;;25.33;;
19951;SDS011;10137;49.406;19.484;2022-10-14T00:52:21;41.67;;;24.70;;
19951;SDS011;10137;49.406;19.484;2022-10-14T00:54:50;74.70;;;23.10;;
19951;SDS011;10137;49.406;19.484;2022-10-14T00:57:21;46.17;;;21.33;;
19951;SDS011;10137;49.406;19.484;2022-10-14T00:59:48;38.97;;;22.87;;
19951;SDS011;10137;49.406;19.484;2022-10-14T01:02:16;38.50;;;22.90;;
19951;SDS011;10137;49.406;19.484;2022-10-14T01:04:43;51.20;;;23.63;;
19951;SDS011;10137;49.406;19.484;2022-10-14T01:07:13;39.43;;;24.40;;
19951;SDS011;10137;49.406;19.484;2022-10-14T01:09:47;38.17;;;22.43;;
19951;SDS011;10137;49.406;19.484;2022-10-14T01:12:25;52.80;;;22.93;;
19951;SDS011;10137;49.406;19.484;2022-10-14T01:15:00;45.73;;;23.10;;
19951;SDS011;10137;49.406;19.484;2022-10-14T01:17:38;111.53;;;24.27;;
19951;SDS011;10137;49.406;19.484;2022-10-14T01:23:28;48.23;;;22.33;;
19951;SDS011;10137;49.406;19.484;2022-10-14T01:26:11;38.10;;;22.73;;
19951;SDS011;10137;49.406;19.484;2022-10-14T01:28:56;41.67;;;23.80;;
19951;SDS011;10137;49.406;19.484;2022-10-14T01:31:35;59.50;;;21.90;;
19951;SDS011;10137;49.406;19.484;2022-10-14T01:34:08;60.90;;;19.93;;
19951;SDS011;10137;49.406;19.484;2022-10-14T01:36:37;60.83;;;21.33;;
19951;SDS011;10137;49.406;19.484;2022-10-14T01:39:11;51.13;;;20.00;;
19951;SDS011;10137;49.406;19.484;2022-10-14T01:41:44;59.00;;;21.40;;
19951;SDS011;10137;49.406;19.484;2022-10-14T01:44:13;37.70;;;20.00;;
19951;SDS011;10137;49.406;19.484;2022-10-14T01:46:45;39.70;;;21.50;;
19951;SDS011;10137;49.406;19.484;2022-10-14T01:49:18;58.93;;;23.10;;
19951;SDS011;10137;49.406;19.484;2022-10-14T01:51:51;65.10;;;21.30;;
19951;SDS011;10137;49.406;19.484;2022-10-14T01:54:25;37.73;;;21.47;;
19951;SDS011;10137;49.406;19.484;2022-10-14T01:56:55;76.57;;;21.40;;
19951;SDS011;10137;49.406;19.484;2022-10-14T01:59:26;53.23;;;23.03;;
19951;SDS011;10137;49.406;19.484;2022-10-14T02:01:56;36.97;;;21.73;;
19951;SDS011;10137;49.406;19.484;2022-10-14T02:04:23;50.80;;;21.70;;
19951;SDS011;10137;49.406;19.484;2022-10-14T02:06:51;36.30;;;21.33;;
19951;SDS011;10137;49.406;19.484;2022-10-14T02:09:26;42.30;;;21.40;;
19951;SDS011;10137;49.406;19.484;2022-10-14T02:12:03;36.17;;;21.50;;
19951;SDS011;10137;49.406;19.484;2022-10-14T02:14:42;38.53;;;21.80;;
19951;SDS011;10137;49.406;19.484;2022-10-14T02:17:18;39.60;;;23.40;;
19951;SDS011;10137;49.406;19.484;2022-10-14T02:19:51;41.63;;;21.27;;
19951;SDS011;10137;49.406;19.484;2022-10-14T02:22:24;41.07;;;21.83;;
19951;SDS011;10137;49.406;19.484;2022-10-14T02:24:55;39.53;;;21.57;;
19951;SDS011;10137;49.406;19.484;2022-10-14T02:27:25;39.97;;;21.77;;
19951;SDS011;10137;49.406;19.484;2022-10-14T02:29:54;43.53;;;21.63;;
19951;SDS011;10137;49.406;19.484;2022-10-14T02:32:24;40.17;;;22.10;;
19951;SDS011;10137;49.406;19.484;2022-10-14T02:34:53;37.70;;;21.53;;
19951;SDS011;10137;49.406;19.484;2022-10-14T02:37:23;38.90;;;21.57;;
19951;SDS011;10137;49.406;19.484;2022-10-14T02:39:53;36.57;;;21.40;;
19951;SDS011;10137;49.406;19.484;2022-10-14T02:42:24;41.47;;;22.53;;
19951;SDS011;10137;49.406;19.484;2022-10-14T02:44:51;37.20;;;20.97;;
19951;SDS011;10137;49.406;19.484;2022-10-14T02:47:19;39.67;;;25.90;;
19951;SDS011;10137;49.406;19.484;2022-10-14T02:49:48;29.93;;;19.50;;
19951;SDS011;10137;49.406;19.484;2022-10-14T02:52:15;38.73;;;20.77;;
19951;SDS011;10137;49.406;19.484;2022-10-14T02:54:42;34.60;;;20.23;;
19951;SDS011;10137;49.406;19.484;2022-10-14T02:57:10;29.93;;;19.03;;
19951;SDS011;10137;49.406;19.484;2022-10-14T02:59:37;31.37;;;20.23;;
19951;SDS011;10137;49.406;19.484;2022-10-14T03:02:04;31.13;;;18.97;;
19951;SDS011;10137;49.406;19.484;2022-10-14T03:04:32;31.93;;;20.33;;
19951;SDS011;10137;49.406;19.484;2022-10-14T03:07:01;32.83;;;18.37;;
19951;SDS011;10137;49.406;19.484;2022-10-14T03:09:28;28.13;;;17.83;;
19951;SDS011;10137;49.406;19.484;2022-10-14T03:11:55;28.93;;;18.87;;
19951;SDS011;10137;49.406;19.484;2022-10-14T03:14:22;28.47;;;19.00;;
19951;SDS011;10137;49.406;19.484;2022-10-14T03:16:49;33.57;;;19.73;;
19951;SDS011;10137;49.406;19.484;2022-10-14T03:19:17;34.33;;;20.00;;
19951;SDS011;10137;49.406;19.484;2022-10-14T03:21:44;35.30;;;20.37;;
19951;SDS011;10137;49.406;19.484;2022-10-14T03:24:14;32.27;;;20.70;;
19951;SDS011;10137;49.406;19.484;2022-10-14T03:26:41;33.92;;;21.35;;
19951;SDS011;10137;49.406;19.484;2022-10-14T03:29:08;29.63;;;19.43;;
19951;SDS011;10137;49.406;19.484;2022-10-14T03:31:35;27.03;;;17.90;;
19951;SDS011;10137;49.406;19.484;2022-10-14T03:34:02;26.87;;;18.00;;
19951;SDS011;10137;49.406;19.484;2022-10-14T03:36:29;29.03;;;18.50;;
19951;SDS011;10137;49.406;19.484;2022-10-14T03:38:56;31.27;;;18.03;;
19951;SDS011;10137;49.406;19.484;2022-10-14T03:41:24;33.03;;;19.00;;
19951;SDS011;10137;49.406;19.484;2022-10-14T03:43:51;33.87;;;18.63;;
19951;SDS011;10137;49.406;19.484;2022-10-14T03:46:18;33.27;;;18.67;;
19951;SDS011;10137;49.406;19.484;2022-10-14T03:48:45;31.43;;;18.20;;
19951;SDS011;10137;49.406;19.484;2022-10-14T03:51:12;29.43;;;18.47;;
19951;SDS011;10137;49.406;19.484;2022-10-14T03:53:39;31.07;;;18.63;;
19951;SDS011;10137;49.406;19.484;2022-10-14T03:56:06;33.80;;;18.47;;
19951;SDS011;10137;49.406;19.484;2022-10-14T03:58:35;33.60;;;18.57;;
19951;SDS011;10137;49.406;19.484;2022-10-14T04:01:02;31.23;;;20.03;;
19951;SDS011;10137;49.406;19.484;2022-10-14T04:03:29;30.70;;;19.73;;
19951;SDS011;10137;49.406;19.484;2022-10-14T04:05:56;33.07;;;18.40;;
19951;SDS011;10137;49.406;19.484;2022-10-14T04:08:23;33.80;;;19.47;;
19951;SDS011;10137;49.406;19.484;2022-10-14T04:10:51;31.27;;;19.40;;
19951;SDS011;10137;49.406;19.484;2022-10-14T04:13:18;32.00;;;18.63;;
19951;SDS011;10137;49.406;19.484;2022-10-14T04:15:47;33.07;;;18.93;;
19951;SDS011;10137;49.406;19.484;2022-10-14T04:18:14;38.17;;;20.27;;
19951;SDS011;10137;49.406;19.484;2022-10-14T04:20:41;51.70;;;26.73;;
19951;SDS011;10137;49.406;19.484;2022-10-14T04:23:09;42.37;;;22.57;;
19951;SDS011;10137;49.406;19.484;2022-10-14T04:25:36;46.90;;;24.37;;
19951;SDS011;10137;49.406;19.484;2022-10-14T04:28:04;45.77;;;23.67;;
19951;SDS011;10137;49.406;19.484;2022-10-14T04:30:31;49.43;;;22.17;;
19951;SDS011;10137;49.406;19.484;2022-10-14T04:32:59;41.17;;;21.07;;
19951;SDS011;10137;49.406;19.484;2022-10-14T04:35:26;42.33;;;22.00;;
19951;SDS011;10137;49.406;19.484;2022-10-14T04:37:53;36.60;;;20.50;;
19951;SDS011;10137;49.406;19.484;2022-10-14T04:40:20;47.33;;;24.43;;
19951;SDS011;10137;49.406;19.484;2022-10-14T04:42:52;46.00;;;24.73;;
19951;SDS011;10137;49.406;19.484;2022-10-14T04:45:20;45.67;;;25.13;;
19951;SDS011;10137;49.406;19.484;2022-10-14T04:47:47;52.47;;;25.97;;
19951;SDS011;10137;49.406;19.484;2022-10-14T04:50:16;47.23;;;25.97;;
19951;SDS011;10137;49.406;19.484;2022-10-14T04:52:44;51.43;;;24.40;;
19951;SDS011;10137;49.406;19.484;2022-10-14T04:55:10;52.77;;;24.23;;
19951;SDS011;10137;49.406;19.484;2022-10-14T04:57:38;44.37;;;23.07;;
19951;SDS011;10137;49.406;19.484;2022-10-14T05:00:08;51.33;;;26.37;;
19951;SDS011;10137;49.406;19.484;2022-10-14T05:02:36;49.90;;;25.77;;
19951;SDS011;10137;49.406;19.484;2022-10-14T05:05:04;54.93;;;26.83;;
19951;SDS011;10137;49.406;19.484;2022-10-14T05:07:34;54.67;;;27.20;;
19951;SDS011;10137;49.406;19.484;2022-10-14T05:10:01;52.63;;;26.83;;
19951;SDS011;10137;49.406;19.484;2022-10-14T05:12:29;49.73;;;26.87;;
19951;SDS011;10137;49.406;19.484;2022-10-14T05:14:56;48.20;;;26.00;;
19951;SDS011;10137;49.406;19.484;2022-10-14T05:17:23;56.47;;;28.10;;
19951;SDS011;10137;49.406;19.484;2022-10-14T05:19:50;55.33;;;28.73;;
19951;SDS011;10137;49.406;19.484;2022-10-14T05:22:17;56.03;;;28.60;;
19951;SDS011;10137;49.406;19.484;2022-10-14T05:24:46;64.67;;;30.13;;
19951;SDS011;10137;49.406;19.484;2022-10-14T05:27:13;69.50;;;34.67;;
19951;SDS011;10137;49.406;19.484;2022-10-14T05:29:40;69.97;;;33.27;;
19951;SDS011;10137;49.406;19.484;2022-10-14T05:32:07;63.77;;;29.73;;
19951;SDS011;10137;49.406;19.484;2022-10-14T05:34:36;61.77;;;26.47;;
19951;SDS011;10137;49.406;19.484;2022-10-14T05:37:03;61.27;;;25.10;;
19951;SDS011;10137;49.406;19.484;2022-10-14T05:39:31;56.20;;;24.60;;
19951;SDS011;10137;49.406;19.484;2022-10-14T05:42:04;55.67;;;26.27;;
19951;SDS011;10137;49.406;19.484;2022-10-14T05:44:35;73.83;;;28.23;;
19951;SDS011;10137;49.406;19.484;2022-10-14T05:47:03;69.73;;;27.37;;
19951;SDS011;10137;49.406;19.484;2022-10-14T05:49:30;65.47;;;28.20;;
19951;SDS011;10137;49.406;19.484;2022-10-14T05:51:59;63.53;;;28.53;;
19951;SDS011;10137;49.406;19.484;2022-10-14T05:54:27;70.27;;;29.13;;
19951;SDS011;10137;49.406;19.484;2022-10-14T05:56:55;72.93;;;28.80;;
19951;SDS011;10137;49.406;19.484;2022-10-14T05:59:24;61.37;;;28.47;;
19951;SDS011;10137;49.406;19.484;2022-10-14T06:01:53;57.90;;;28.97;;
19951;SDS011;10137;49.406;19.484;2022-10-14T06:04:23;52.43;;;26.67;;
19951;SDS011;10137;49.406;19.484;2022-10-14T06:06:54;57.73;;;28.83;;
19951;SDS011;10137;49.406;19.484;2022-10-14T06:09:22;68.30;;;31.40;;
19951;SDS011;10137;49.406;19.484;2022-10-14T06:11:49;66.50;;;29.03;;
19951;SDS011;10137;49.406;19.484;2022-10-14T06:14:18;58.20;;;29.13;;
19951;SDS011;10137;49.406;19.484;2022-10-14T06:16:53;65.00;;;28.80;;
19951;SDS011;10137;49.406;19.484;2022-10-14T06:19:21;54.83;;;28.07;;
19951;SDS011;10137;49.406;19.484;2022-10-14T06:21:49;55.27;;;28.37;;
19951;SDS011;10137;49.406;19.484;2022-10-14T06:24:16;58.60;;;29.13;;
19951;SDS011;10137;49.406;19.484;2022-10-14T06:26:43;53.53;;;28.17;;
19951;SDS011;10137;49.406;19.484;2022-10-14T06:29:13;63.97;;;28.00;;
19951;SDS011;10137;49.406;19.484;2022-10-14T06:31:41;57.60;;;27.03;;
19951;SDS011;10137;49.406;19.484;2022-10-14T06:34:09;57.30;;;27.03;;
19951;SDS011;10137;49.406;19.484;2022-10-14T06:36:37;51.13;;;26.30;;
19951;SDS011;10137;49.406;19.484;2022-10-14T06:39:04;56.23;;;27.23;;
19951;SDS011;10137;49.406;19.484;2022-10-14T06:41:33;55.90;;;27.97;;
19951;SDS011;10137;49.406;19.484;2022-10-14T06:44:00;56.10;;;27.10;;
19951;SDS011;10137;49.406;19.484;2022-10-14T06:46:28;56.53;;;27.63;;
19951;SDS011;10137;49.406;19.484;2022-10-14T06:48:56;60.20;;;30.10;;
19951;SDS011;10137;49.406;19.484;2022-10-14T06:51:24;61.43;;;29.50;;
19951;SDS011;10137;49.406;19.484;2022-10-14T06:53:52;57.37;;;29.27;;
19951;SDS011;10137;49.406;19.484;2022-10-14T06:56:22;65.10;;;30.93;;
19951;SDS011;10137;49.406;19.484;2022-10-14T06:58:52;64.90;;;31.50;;
19951;SDS011;10137;49.406;19.484;2022-10-14T07:01:20;58.20;;;29.00;;
19951;SDS011;10137;49.406;19.484;2022-10-14T07:03:47;50.70;;;26.93;;
19951;SDS011;10137;49.406;19.484;2022-10-14T07:06:16;59.53;;;30.93;;
19951;SDS011;10137;49.406;19.484;2022-10-14T07:08:49;58.73;;;28.27;;
19951;SDS011;10137;49.406;19.484;2022-10-14T07:11:18;58.20;;;28.63;;
19951;SDS011;10137;49.406;19.484;2022-10-14T07:13:45;53.00;;;28.13;;
19951;SDS011;10137;49.406;19.484;2022-10-14T07:16:13;51.60;;;26.83;;
19951;SDS011;10137;49.406;19.484;2022-10-14T07:18:42;50.70;;;26.43;;
19951;SDS011;10137;49.406;19.484;2022-10-14T07:21:14;54.43;;;27.50;;
19951;SDS011;10137;49.406;19.484;2022-10-14T07:23:42;50.47;;;27.60;;
19951;SDS011;10137;49.406;19.484;2022-10-14T07:26:11;52.67;;;27.30;;
19951;SDS011;10137;49.406;19.484;2022-10-14T07:28:38;49.27;;;26.13;;
19951;SDS011;10137;49.406;19.484;2022-10-14T07:31:06;51.97;;;27.57;;
19951;SDS011;10137;49.406;19.484;2022-10-14T07:33:35;46.67;;;25.23;;
19951;SDS011;10137;49.406;19.484;2022-10-14T07:36:05;54.43;;;27.50;;
19951;SDS011;10137;49.406;19.484;2022-10-14T07:38:34;50.97;;;26.83;;
19951;SDS011;10137;49.406;19.484;2022-10-14T07:41:03;49.37;;;25.87;;
19951;SDS011;10137;49.406;19.484;2022-10-14T07:43:45;52.73;;;28.03;;
19951;SDS011;10137;49.406;19.484;2022-10-14T07:46:18;49.30;;;26.73;;
19951;SDS011;10137;49.406;19.484;2022-10-14T07:48:57;47.43;;;25.47;;
19951;SDS011;10137;49.406;19.484;2022-10-14T07:51:25;50.47;;;27.30;;
19951;SDS011;10137;49.406;19.484;2022-10-14T07:53:55;52.57;;;26.53;;
19951;SDS011;10137;49.406;19.484;2022-10-14T07:56:23;57.83;;;26.80;;
19951;SDS011;10137;49.406;19.484;2022-10-14T07:58:54;51.73;;;28.37;;
19951;SDS011;10137;49.406;19.484;2022-10-14T08:01:23;44.70;;;24.80;;
19951;SDS011;10137;49.406;19.484;2022-10-14T08:03:50;54.33;;;24.93;;
19951;SDS011;10137;49.406;19.484;2022-10-14T08:06:17;47.87;;;24.37;;
19951;SDS011;10137;49.406;19.484;2022-10-14T08:08:44;45.27;;;24.70;;
19951;SDS011;10137;49.406;19.484;2022-10-14T08:11:14;45.70;;;25.23;;
19951;SDS011;10137;49.406;19.484;2022-10-14T08:13:43;44.63;;;24.23;;
19951;SDS011;10137;49.406;19.484;2022-10-14T08:16:16;44.03;;;24.17;;
19951;SDS011;10137;49.406;19.484;2022-10-14T08:18:48;51.67;;;26.63;;
19951;SDS011;10137;49.406;19.484;2022-10-14T08:21:17;55.73;;;28.20;;
19951;SDS011;10137;49.406;19.484;2022-10-14T08:23:45;47.03;;;26.73;;
19951;SDS011;10137;49.406;19.484;2022-10-14T08:26:17;47.33;;;24.80;;
19951;SDS011;10137;49.406;19.484;2022-10-14T08:28:46;43.37;;;23.83;;
19951;SDS011;10137;49.406;19.484;2022-10-14T08:31:15;48.03;;;24.70;;
19951;SDS011;10137;49.406;19.484;2022-10-14T08:33:43;39.47;;;23.63;;
19951;SDS011;10137;49.406;19.484;2022-10-14T08:36:10;43.97;;;24.60;;
19951;SDS011;10137;49.406;19.484;2022-10-14T08:38:37;42.80;;;23.43;;
19951;SDS011;10137;49.406;19.484;2022-10-14T08:41:06;41.07;;;23.20;;
19951;SDS011;10137;49.406;19.484;2022-10-14T08:43:53;42.73;;;24.50;;
19951;SDS011;10137;49.406;19.484;2022-10-14T08:46:35;48.40;;;23.80;;
19951;SDS011;10137;49.406;19.484;2022-10-14T08:49:10;52.57;;;24.53;;
19951;SDS011;10137;49.406;19.484;2022-10-14T08:51:47;44.30;;;23.87;;
19951;SDS011;10137;49.406;19.484;2022-10-14T08:54:25;38.60;;;21.93;;
19951;SDS011;10137;49.406;19.484;2022-10-14T08:57:00;36.43;;;22.00;;
19951;SDS011;10137;49.406;19.484;2022-10-14T08:59:31;37.20;;;22.77;;
19951;SDS011;10137;49.406;19.484;2022-10-14T09:02:10;40.67;;;22.80;;
19951;SDS011;10137;49.406;19.484;2022-10-14T09:04:48;44.73;;;24.70;;
19951;SDS011;10137;49.406;19.484;2022-10-14T09:07:16;39.23;;;21.73;;
19951;SDS011;10137;49.406;19.484;2022-10-14T09:09:46;38.40;;;22.07;;
19951;SDS011;10137;49.406;19.484;2022-10-14T09:12:16;37.33;;;20.57;;
19951;SDS011;10137;49.406;19.484;2022-10-14T09:14:57;38.63;;;20.30;;
19951;SDS011;10137;49.406;19.484;2022-10-14T09:17:35;36.27;;;19.07;;
19951;SDS011;10137;49.406;19.484;2022-10-14T09:20:12;41.17;;;20.77;;
19951;SDS011;10137;49.406;19.484;2022-10-14T09:22:43;34.93;;;20.03;;
19951;SDS011;10137;49.406;19.484;2022-10-14T09:25:11;37.47;;;20.77;;
19951;SDS011;10137;49.406;19.484;2022-10-14T09:27:39;33.87;;;18.23;;
19951;SDS011;10137;49.406;19.484;2022-10-14T09:30:08;32.33;;;18.67;;
19951;SDS011;10137;49.406;19.484;2022-10-14T09:32:42;31.37;;;19.60;;
19951;SDS011;10137;49.406;19.484;2022-10-14T09:35:13;32.53;;;19.43;;
19951;SDS011;10137;49.406;19.484;2022-10-14T09:37:45;29.70;;;18.33;;
19951;SDS011;10137;49.406;19.484;2022-10-14T09:40:15;30.83;;;18.27;;
19951;SDS011;10137;49.406;19.484;2022-10-14T09:42:56;34.33;;;19.80;;
19951;SDS011;10137;49.406;19.484;2022-10-14T09:45:25;35.87;;;18.63;;
19951;SDS011;10137;49.406;19.484;2022-10-14T09:47:57;30.57;;;17.80;;
19951;SDS011;10137;49.406;19.484;2022-10-14T09:50:32;33.33;;;18.50;;
19951;SDS011;10137;49.406;19.484;2022-10-14T09:53:02;36.27;;;19.50;;
19951;SDS011;10137;49.406;19.484;2022-10-14T09:55:33;30.73;;;18.40;;
19951;SDS011;10137;49.406;19.484;2022-10-14T09:58:05;37.07;;;19.27;;
19951;SDS011;10137;49.406;19.484;2022-10-14T10:00:38;32.87;;;19.33;;
19951;SDS011;10137;49.406;19.484;2022-10-14T10:03:22;32.60;;;19.30;;
19951;SDS011;10137;49.406;19.484;2022-10-14T10:06:00;36.70;;;20.10;;
19951;SDS011;10137;49.406;19.484;2022-10-14T10:08:32;42.30;;;19.80;;
19951;SDS011;10137;49.406;19.484;2022-10-14T10:11:01;35.57;;;20.07;;
19951;SDS011;10137;49.406;19.484;2022-10-14T10:13:37;36.57;;;19.97;;
19951;SDS011;10137;49.406;19.484;2022-10-14T10:16:06;35.63;;;18.53;;
19951;SDS011;10137;49.406;19.484;2022-10-14T10:18:45;32.47;;;17.33;;
19951;SDS011;10137;49.406;19.484;2022-10-14T10:21:15;28.63;;;16.93;;
19951;SDS011;10137;49.406;19.484;2022-10-14T10:23:50;27.50;;;16.13;;
19951;SDS011;10137;49.406;19.484;2022-10-14T10:26:20;30.60;;;15.67;;
19951;SDS011;10137;49.406;19.484;2022-10-14T10:28:50;26.57;;;15.33;;
19951;SDS011;10137;49.406;19.484;2022-10-14T10:31:24;29.33;;;16.17;;
19951;SDS011;10137;49.406;19.484;2022-10-14T10:37:18;25.60;;;15.83;;
19951;SDS011;10137;49.406;19.484;2022-10-14T10:39:54;26.60;;;14.17;;
19951;SDS011;10137;49.406;19.484;2022-10-14T10:42:44;27.90;;;15.83;;
19951;SDS011;10137;49.406;19.484;2022-10-14T10:45:21;21.33;;;15.13;;
19951;SDS011;10137;49.406;19.484;2022-10-14T10:48:04;32.13;;;15.17;;
19951;SDS011;10137;49.406;19.484;2022-10-14T10:50:39;36.70;;;18.67;;
19951;SDS011;10137;49.406;19.484;2022-10-14T10:53:19;29.03;;;16.87;;
19951;SDS011;10137;49.406;19.484;2022-10-14T10:56:11;29.30;;;14.97;;
19951;SDS011;10137;49.406;19.484;2022-10-14T10:58:49;24.73;;;15.00;;
19951;SDS011;10137;49.406;19.484;2022-10-14T11:01:32;40.33;;;16.93;;
19951;SDS011;10137;49.406;19.484;2022-10-14T11:04:16;24.20;;;14.87;;
19951;SDS011;10137;49.406;19.484;2022-10-14T11:06:59;23.47;;;14.13;;
19951;SDS011;10137;49.406;19.484;2022-10-14T11:09:54;29.10;;;15.53;;
19951;SDS011;10137;49.406;19.484;2022-10-14T11:12:47;26.40;;;14.63;;
19951;SDS011;10137;49.406;19.484;2022-10-14T11:15:24;24.07;;;14.37;;
19951;SDS011;10137;49.406;19.484;2022-10-14T11:18:02;26.50;;;14.90;;
19951;SDS011;10137;49.406;19.484;2022-10-14T11:20:37;27.73;;;14.30;;
19951;SDS011;10137;49.406;19.484;2022-10-14T11:23:18;42.93;;;16.07;;
19951;SDS011;10137;49.406;19.484;2022-10-14T11:26:02;23.90;;;15.07;;
19951;SDS011;10137;49.406;19.484;2022-10-14T11:28:38;26.90;;;16.67;;
19951;SDS011;10137;49.406;19.484;2022-10-14T11:31:12;33.97;;;15.20;;
19951;SDS011;10137;49.406;19.484;2022-10-14T11:33:58;23.63;;;15.47;;
19951;SDS011;10137;49.406;19.484;2022-10-14T11:37:02;25.47;;;14.93;;
19951;SDS011;10137;49.406;19.484;2022-10-14T11:39:41;30.50;;;16.00;;
19951;SDS011;10137;49.406;19.484;2022-10-14T11:42:17;27.07;;;15.47;;
19951;SDS011;10137;49.406;19.484;2022-10-14T11:45:18;26.20;;;15.17;;
19951;SDS011;10137;49.406;19.484;2022-10-14T11:48:08;23.40;;;14.97;;
19951;SDS011;10137;49.406;19.484;2022-10-14T11:50:41;26.07;;;15.73;;
19951;SDS011;10137;49.406;19.484;2022-10-14T11:53:13;27.50;;;16.80;;
19951;SDS011;10137;49.406;19.484;2022-10-14T11:55:55;30.07;;;16.77;;
19951;SDS011;10137;49.406;19.484;2022-10-14T11:58:31;22.27;;;15.47;;
19951;SDS011;10137;49.406;19.484;2022-10-14T12:01:02;30.07;;;16.23;;
19951;SDS011;10137;49.406;19.484;2022-10-14T12:03:39;27.70;;;16.57;;
19951;SDS011;10137;49.406;19.484;2022-10-14T12:06:14;24.43;;;16.77;;
19951;SDS011;10137;49.406;19.484;2022-10-14T12:08:47;25.03;;;16.13;;
19951;SDS011;10137;49.406;19.484;2022-10-14T12:11:26;29.83;;;16.73;;
19951;SDS011;10137;49.406;19.484;2022-10-14T12:14:01;25.80;;;16.43;;
19951;SDS011;10137;49.406;19.484;2022-10-14T12:16:31;24.80;;;16.67;;
19951;SDS011;10137;49.406;19.484;2022-10-14T12:18:58;26.93;;;17.40;;
19951;SDS011;10137;49.406;19.484;2022-10-14T12:21:28;25.60;;;17.73;;
19951;SDS011;10137;49.406;19.484;2022-10-14T12:24:02;29.67;;;16.07;;
19951;SDS011;10137;49.406;19.484;2022-10-14T12:26:44;26.33;;;15.87;;
19951;SDS011;10137;49.406;19.484;2022-10-14T12:29:18;27.77;;;16.83;;
19951;SDS011;10137;49.406;19.484;2022-10-14T12:31:48;25.90;;;16.10;;
19951;SDS011;10137;49.406;19.484;2022-10-14T12:34:32;27.10;;;15.20;;
19951;SDS011;10137;49.406;19.484;2022-10-14T12:40:21;25.60;;;16.20;;
19951;SDS011;10137;49.406;19.484;2022-10-14T12:45:53;26.53;;;14.70;;
19951;SDS011;10137;49.406;19.484;2022-10-14T12:48:25;26.73;;;15.90;;
19951;SDS011;10137;49.406;19.484;2022-10-14T12:51:04;24.80;;;15.37;;
19951;SDS011;10137;49.406;19.484;2022-10-14T12:53:35;29.77;;;15.57;;
19951;SDS011;10137;49.406;19.484;2022-10-14T12:56:05;22.27;;;14.43;;
19951;SDS011;10137;49.406;19.484;2022-10-14T12:58:36;25.10;;;15.10;;
19951;SDS011;10137;49.406;19.484;2022-10-14T13:01:14;23.73;;;15.57;;
19951;SDS011;10137;49.406;19.484;2022-10-14T13:03:44;26.83;;;14.93;;
19951;SDS011;10137;49.406;19.484;2022-10-14T13:06:27;23.13;;;14.43;;
19951;SDS011;10137;49.406;19.484;2022-10-14T13:11:44;31.87;;;16.23;;
19951;SDS011;10137;49.406;19.484;2022-10-14T13:14:54;24.97;;;14.60;;
19951;SDS011;10137;49.406;19.484;2022-10-14T13:17:29;22.57;;;15.17;;
19951;SDS011;10137;49.406;19.484;2022-10-14T13:23:30;26.73;;;15.43;;
19951;SDS011;10137;49.406;19.484;2022-10-14T13:26:18;23.00;;;15.57;;
19951;SDS011;10137;49.406;19.484;2022-10-14T13:28:57;23.63;;;15.03;;
19951;SDS011;10137;49.406;19.484;2022-10-14T13:31:40;37.07;;;15.20;;
19951;SDS011;10137;49.406;19.484;2022-10-14T13:34:20;25.67;;;13.70;;
19951;SDS011;10137;49.406;19.484;2022-10-14T13:36:59;22.33;;;14.43;;
19951;SDS011;10137;49.406;19.484;2022-10-14T13:39:32;21.27;;;13.60;;
19951;SDS011;10137;49.406;19.484;2022-10-14T13:42:00;19.67;;;13.83;;
19951;SDS011;10137;49.406;19.484;2022-10-14T13:44:28;25.50;;;14.03;;
19951;SDS011;10137;49.406;19.484;2022-10-14T13:46:59;21.30;;;14.17;;
19951;SDS011;10137;49.406;19.484;2022-10-14T13:49:29;22.90;;;14.60;;
19951;SDS011;10137;49.406;19.484;2022-10-14T13:52:03;20.83;;;13.07;;
19951;SDS011;10137;49.406;19.484;2022-10-14T13:54:34;21.30;;;14.00;;
19951;SDS011;10137;49.406;19.484;2022-10-14T13:57:02;22.70;;;15.07;;
19951;SDS011;10137;49.406;19.484;2022-10-14T13:59:34;24.20;;;14.10;;
19951;SDS011;10137;49.406;19.484;2022-10-14T14:02:08;21.50;;;14.57;;
19951;SDS011;10137;49.406;19.484;2022-10-14T14:04:39;21.53;;;13.70;;
19951;SDS011;10137;49.406;19.484;2022-10-14T14:07:10;24.43;;;15.27;;
19951;SDS011;10137;49.406;19.484;2022-10-14T14:09:44;21.00;;;14.17;;
19951;SDS011;10137;49.406;19.484;2022-10-14T14:12:14;27.50;;;15.40;;
19951;SDS011;10137;49.406;19.484;2022-10-14T14:14:44;33.30;;;18.27;;
19951;SDS011;10137;49.406;19.484;2022-10-14T14:17:14;36.27;;;20.43;;
19951;SDS011;10137;49.406;19.484;2022-10-14T14:19:43;27.57;;;18.00;;
19951;SDS011;10137;49.406;19.484;2022-10-14T14:22:15;32.87;;;17.00;;
19951;SDS011;10137;49.406;19.484;2022-10-14T14:24:43;28.37;;;17.87;;
19951;SDS011;10137;49.406;19.484;2022-10-14T14:27:12;25.40;;;16.50;;
19951;SDS011;10137;49.406;19.484;2022-10-14T14:29:41;26.20;;;18.83;;
19951;SDS011;10137;49.406;19.484;2022-10-14T14:32:14;28.43;;;18.93;;
19951;SDS011;10137;49.406;19.484;2022-10-14T14:34:43;26.50;;;17.53;;
19951;SDS011;10137;49.406;19.484;2022-10-14T14:37:13;24.97;;;16.37;;
19951;SDS011;10137;49.406;19.484;2022-10-14T14:39:53;26.30;;;16.20;;
19951;SDS011;10137;49.406;19.484;2022-10-14T14:42:21;24.03;;;16.20;;
19951;SDS011;10137;49.406;19.484;2022-10-14T14:44:49;24.43;;;16.33;;
19951;SDS011;10137;49.406;19.484;2022-10-14T14:47:20;23.93;;;16.87;;
19951;SDS011;10137;49.406;19.484;2022-10-14T14:49:48;29.50;;;17.97;;
19951;SDS011;10137;49.406;19.484;2022-10-14T14:52:17;24.17;;;17.37;;
19951;SDS011;10137;49.406;19.484;2022-10-14T14:54:46;24.37;;;16.80;;